Flight Track Log - Related Links

Times and Time Zones

All times are in EDT time to prevent confusion due to time zone crossing. See the N693PD flight status page for this flight to view local times or setup timezone preferences in your user account.


Time Position Orientation Groundspeed Altitude Reporting Facility
EDT Latitude Longitude Course Direction KTS MPH feet Rate Location/Type
Thu 04:08:41 PM 41.7500 -87.8000 180° South 130 150 3,200  Level Chicago TRACON
Thu 04:10:53 PM 41.6694 -87.8908 220° Southwest 177 204 5,300 1,144 Climbing Chicago Center
Thu 04:11:55 PM 41.6261 -87.8822 172° South 169 194 6,900 1,500 Climbing Chicago Center
Thu 04:12:57 PM 41.5817 -87.8722 170° South 163 188 8,400 1,355 Climbing Chicago Center
Thu 04:13:00 PM 41.4430 -87.7667 180° South  Level FlightAware Approximate
Thu 04:13:59 PM 41.5369 -87.8600 168° South 163 188 9,700  Level Chicago Center
Thu 04:15:01 PM 41.4867 -87.8475 169° South 172 198 10,000 144 Climbing Chicago Center
Thu 04:16:04 PM 41.4142 -87.8289 169° South 215 247 10,000  Level Chicago Center
Thu 04:17:06 PM 41.3517 -87.8122 169° South 225 259 10,000 435 Level Chicago Center
Thu 04:18:08 PM 41.2894 -87.7956 169° South 228 262 10,900 1,065 Climbing Chicago Center
Thu 04:19:10 PM 41.2442 -87.7650 153° Southeast 210 242 12,200 1,161 Climbing Chicago Center
Thu 04:20:12 PM 41.1992 -87.7258 147° Southeast 196 226 13,300 1,065 Climbing Chicago Center
Thu 04:21:14 PM 41.1461 -87.7069 165° South 196 226 14,400 1,016 Climbing Chicago Center
Thu 04:22:16 PM 41.0836 -87.6786 161° South 199 229 15,400 1,016 Climbing Chicago Center
Thu 04:23:18 PM 41.0311 -87.6544 161° South 201 231 16,500 919 Climbing Chicago Center
Thu 04:24:20 PM 40.9783 -87.6311 162° South 200 230 17,300 823 Climbing Chicago Center
Thu 04:25:22 PM 40.9222 -87.6044 160° South 208 239 18,200 919 Climbing Chicago Center
Thu 04:26:24 PM 40.8675 -87.5803 162° South 209 241 19,200 1,008 Climbing Chicago Center
Thu 04:27:27 PM 40.8028 -87.5517 161° South 207 238 20,300 871 Climbing Chicago Center
Thu 04:28:28 PM 40.7483 -87.5275 161° South 207 238 21,000 537 Climbing Chicago Center
Thu 04:29:30 PM 40.6911 -87.5008 161° South 215 247 21,400 912 Climbing Chicago Center
Thu 04:30:33 PM 40.6403 -87.4786 162° South 202 232 22,900 768 Climbing Chicago Center
Thu 04:31:35 PM 40.5903 -87.4575 162° South 188 216 23,000 48 Climbing Chicago Center
Thu 04:32:37 PM 40.5200 -87.4239 160° South 211 243 23,000  Level Chicago Center
Thu 04:33:39 PM 40.4578 -87.3961 161° South 226 260 23,000  Level Chicago Center
Thu 04:34:41 PM 40.3922 -87.3675 162° South 238 274 23,000  Level Chicago Center
Thu 04:35:43 PM 40.3267 -87.3406 163° South 244 281 23,000  Level Chicago Center
Thu 04:36:45 PM 40.2622 -87.3125 162° South 246 283 23,000  Level Chicago Center
Thu 04:37:47 PM 40.1992 -87.2861 162° South 241 277 23,000  Level Chicago Center
Thu 04:38:49 PM 40.1275 -87.2542 161° South 231 266 23,000  Level Chicago Center
Thu 04:39:52 PM 40.0667 -87.2536 180° South 220 253 23,000  Level Chicago Center
Thu 04:40:56 PM 40.0061 -87.2511 178° South 215 247 23,000  Level Indianapolis Center
Thu 04:41:58 PM 39.9472 -87.2519 181° South 212 244 23,000  Level Indianapolis Center
Thu 04:43:00 PM 39.8761 -87.2525 180° South 213 245 23,000  Level Indianapolis Center
Thu 04:44:02 PM 39.8169 -87.2517 179° South 213 245 23,000  Level Indianapolis Center
Thu 04:45:04 PM 39.7569 -87.2364 169° South 222 255 23,000  Level Indianapolis Center
Thu 04:46:06 PM 39.6978 -87.2008 155° Southeast 236 272 23,000  Level Indianapolis Center
Thu 04:47:08 PM 39.6378 -87.1733 161° South 232 267 23,000  Level Indianapolis Center
Thu 04:48:10 PM 39.5636 -87.1386 160° South 236 272 23,000  Level Indianapolis Center
Thu 04:49:12 PM 39.4992 -87.1094 161° South 245 282 23,000  Level Indianapolis Center
Thu 04:50:14 PM 39.4347 -87.0781 159° South 248 285 23,000  Level Indianapolis Center
Thu 04:51:17 PM 39.3686 -87.0489 161° South 251 289 23,000  Level Indianapolis Center
Thu 04:52:19 PM 39.3019 -87.0186 161° South 253 291 23,000  Level Indianapolis Center
Thu 04:53:21 PM 39.2350 -86.9881 161° South 256 295 23,000  Level Indianapolis Center
Thu 04:54:23 PM 39.1553 -86.9508 160° South 256 295 23,000  Level Indianapolis Center
Thu 04:55:25 PM 39.0908 -86.9222 161° South 258 297 23,000  Level Indianapolis Center
Thu 04:56:27 PM 39.0228 -86.8911 160° South 260 299 23,000  Level Indianapolis Center
Thu 04:57:29 PM 38.9531 -86.8600 161° South 262 302 23,000  Level Indianapolis Center
Thu 04:58:31 PM 38.8686 -86.8222 161° South 266 306 23,000  Level Indianapolis Center
Thu 04:59:33 PM 38.7994 -86.7892 160° South 265 305 23,000  Level Indianapolis Center
Thu 05:00:35 PM 38.7300 -86.7581 161° South 262 302 23,000  Level Indianapolis Center
Thu 05:01:37 PM 38.6606 -86.7272 161° South 262 302 23,000  Level Indianapolis Center
Thu 05:02:39 PM 38.5908 -86.6969 161° South 262 302 23,000  Level Indianapolis Center
Thu 05:03:41 PM 38.5206 -86.6642 160° South 265 305 23,000  Level Indianapolis Center
Thu 05:04:43 PM 38.4503 -86.6342 162° South 263 303 23,000  Level Indianapolis Center
Thu 05:05:45 PM 38.3808 -86.6031 161° South 262 302 23,000  Level Indianapolis Center
Thu 05:06:47 PM 38.3108 -86.5711 160° South 264 304 23,000  Level Indianapolis Center
Thu 05:07:49 PM 38.2269 -86.5353 161° South 262 302 23,000  Level Indianapolis Center
Thu 05:08:52 PM 38.1575 -86.5039 160° South 263 303 23,000  Level Indianapolis Center
Thu 05:09:54 PM 38.0875 -86.4719 160° South 264 304 23,000  Level Indianapolis Center
Thu 05:10:56 PM 38.0172 -86.4417 161° South 265 305 23,000  Level Indianapolis Center
Thu 05:11:58 PM 37.9472 -86.4114 161° South 264 304 23,000  Level Indianapolis Center
Thu 05:13:00 PM 37.8756 -86.3803 161° South 268 308 23,000  Level Indianapolis Center
Thu 05:14:02 PM 37.8000 -86.3481 161° South 267 307 23,000  Level Indianapolis Center
Thu 05:15:04 PM 37.7292 -86.3164 161° South 267 307 23,000  Level Indianapolis Center
Thu 05:16:06 PM 37.6575 -86.2858 161° South 268 308 23,000  Level Indianapolis Center
Thu 05:17:08 PM 37.5869 -86.2547 161° South 266 306 23,000  Level Indianapolis Center
Thu 05:18:10 PM 37.5036 -86.2189 161° South 269 310 23,000  Level Indianapolis Center
Thu 05:18:56 PM 37.4558 -86.2006 163° South 269 310 23,000  Level Memphis Center
Thu 05:19:56 PM 37.3839 -86.1678 160° South 269 310 23,000  Level Memphis Center
Thu 05:20:14 PM 37.3592 -86.1564 160° South 273 314 23,000  Level Indianapolis Center
Thu 05:20:56 PM 37.3122 -86.1375 162° South 269 310 23,000  Level Memphis Center
Thu 05:21:56 PM 37.2339 -86.1000 159° South 269 310 23,000  Level Memphis Center
Thu 05:22:18 PM 37.2156 -86.0953 168° South 269 310 23,000  Level Indianapolis Center
Thu 05:23:20 PM 37.1433 -86.0633 161° South 271 312 23,000  Level Indianapolis Center
Thu 05:23:56 PM 37.0944 -86.0425 161° South 269 310 23,000  Level Memphis Center
Thu 05:24:56 PM 37.0225 -86.0125 162° South 274 315 23,000  Level Memphis Center
Thu 05:25:56 PM 36.9506 -85.9803 160° South 274 315 23,000  Level Memphis Center
Thu 05:26:56 PM 36.8806 -85.9503 161° South 274 315 23,000  Level Memphis Center
Thu 05:27:56 PM 36.8067 -85.9206 162° South 274 315 23,000  Level Memphis Center
Thu 05:28:56 PM 36.7367 -85.8883 160° South 274 315 23,000  Level Memphis Center
Thu 05:29:56 PM 36.6711 -85.8608 161° South 274 315 23,000  Level Memphis Center
Thu 05:30:56 PM 36.5972 -85.8314 162° South 274 315 23,000  Level Memphis Center
Thu 05:31:56 PM 36.5250 -85.7992 160° South 274 315 23,000  Level Memphis Center
Thu 05:32:56 PM 36.4531 -85.7725 163° South 274 315 23,000  Level Memphis Center
Thu 05:33:56 PM 36.3792 -85.7406 161° South 274 315 23,000  Level Memphis Center
Thu 05:34:56 PM 36.3092 -85.7108 161° South 274 315 23,000  Level Memphis Center
Thu 05:35:56 PM 36.2372 -85.6792 160° South 274 315 23,000  Level Memphis Center
Thu 05:36:56 PM 36.1650 -85.6497 162° South 274 315 23,000  Level Memphis Center
Thu 05:37:56 PM 36.0908 -85.6181 161° South 274 315 23,000  Level Memphis Center
Thu 05:38:56 PM 36.0189 -85.5864 160° South 274 315 23,000  Level Memphis Center
Thu 05:39:56 PM 35.9469 -85.5597 163° South 274 315 23,000  Level Memphis Center
Thu 05:40:56 PM 35.8728 -85.5283 161° South 274 315 23,000  Level Memphis Center
Thu 05:41:56 PM 35.8006 -85.4992 162° South 274 315 23,000  Level Memphis Center
Thu 05:42:56 PM 35.7264 -85.4678 161° South 274 315 23,000  Level Memphis Center
Thu 05:43:56 PM 35.6522 -85.4389 162° South 274 315 23,000  Level Memphis Center
Thu 05:45:46 PM 35.5211 -85.3836 161° South 274 315 23,000  Level Atlanta Center
Thu 05:46:46 PM 35.4483 -85.3542 162° South 274 315 23,000  Level Atlanta Center
Thu 05:47:46 PM 35.3736 -85.3225 161° South 274 315 23,000  Level Atlanta Center
Thu 05:48:46 PM 35.3031 -85.2933 161° South 279 321 23,000 -100 Level Atlanta Center
Thu 05:49:46 PM 35.2261 -85.2642 163° South 284 327 22,800 -550 Descending Atlanta Center
Thu 05:50:46 PM 35.1492 -85.2300 160° South 289 333 21,900 -950 Descending Atlanta Center
Thu 05:51:46 PM 35.0722 -85.2011 163° South 289 333 20,900 -950 Descending Atlanta Center
Thu 05:52:46 PM 34.9953 -85.1694 161° South 289 333 20,000 -950 Descending Atlanta Center
Thu 05:53:46 PM 34.9119 -85.1533 171° South 294 338 19,000 -1,000 Descending Atlanta Center
Thu 05:54:46 PM 34.8306 -85.1497 178° South 294 338 18,000 -1,000 Descending Atlanta Center
Thu 05:55:46 PM 34.7536 -85.1461 178° South 289 333 17,000 -1,000 Descending Atlanta Center
Thu 05:56:46 PM 34.6722 -85.1425 178° South 289 333 16,000 -1,100 Descending Atlanta Center
Thu 05:57:46 PM 34.5825 -85.1389 178° South 294 338 14,800 -1,450 Descending Atlanta Center
Thu 05:58:46 PM 34.5078 -85.1000 157° South 286 329 13,100 -1,850 Descending Atlanta Center
Thu 05:59:46 PM 34.4392 -85.0489 148° Southeast 291 335 11,100 -1,950 Descending Atlanta Center
Thu 06:00:46 PM 34.3708 -84.9975 148° Southeast 291 335 9,200 -1,550 Descending Atlanta Center
Thu 06:01:46 PM 34.3086 -84.9467 146° Southeast 280 322 8,000 -650 Descending Atlanta Center
Thu 06:02:46 PM 34.2461 -84.9033 150° Southeast 269 310 7,900 -50 Descending Atlanta Center
Thu 06:03:46 PM 34.1881 -84.8550 145° Southeast 264 304 7,900 -550 Level Atlanta Center
Thu 06:04:46 PM 34.1406 -84.8017 137° Southeast 264 304 6,800 -1,300 Descending Atlanta Center
Thu 06:05:46 PM 34.0992 -84.7361 127° Southeast 253 291 5,300 -1,450 Descending Atlanta Center
Thu 06:06:46 PM 34.0597 -84.6706 126° Southeast 247 284 3,900 -1,200 Descending Atlanta Center
Thu 06:07:46 PM 34.0558 -84.6006 94° East 214 246 2,900 -850 Descending Atlanta Center
Thu 06:08:46 PM 34.0478 -84.5578 103° East 154 177 2,200 -700 Descending Atlanta Center
Thu 06:09:46 PM 34.0164 -84.5625 187° South 94 108 1,500 -400 Descending Atlanta Center
Thu 06:10:46 PM 33.9956 -84.5625 180° South 94 108 1,400 -100 Descending Atlanta Center
Thu 06:12:00 PM 34.0000 -84.5833 North  Level FlightAware Approximate
Thu 06:19:00 PM 34.0132 -84.5971 North  Level Estimated
Thu 06:20:00 PM 34.0132 -84.5971 North  Level Estimated
Thu 06:21:00 PM 34.0132 -84.5971 North  Level Estimated
Thu 06:22:00 PM 34.0132 -84.5971 North  Level Estimated
Thu 06:23:00 PM 34.0132 -84.5971 North  Level Estimated
Thu 06:24:00 PM 34.0132 -84.5971 North  Level Estimated
Thu 06:25:00 PM 34.0132 -84.5971 North  Level Estimated
Thu 06:26:00 PM 34.0132 -84.5971 North  Level Estimated
Thu 06:27:00 PM 34.0132 -84.5971 North  Level Estimated
Thu 06:28:00 PM 34.0132 -84.5971 North  Level Estimated
Thu 06:29:00 PM 34.0132 -84.5971 North  Level Estimated
Thu 06:30:00 PM 34.0132 -84.5971 North  Level Estimated
Thu 06:31:00 PM 34.0132 -84.5971 North  Level Estimated
Thu 06:32:00 PM 34.0132 -84.5971 North  Level Estimated
Thu 06:33:00 PM 34.0132 -84.5971 North  Level Estimated
Thu 06:34:00 PM 34.0132 -84.5971 North  Level Estimated
Thu 06:35:00 PM 34.0132 -84.5971 North  Level Estimated
Thu 06:36:00 PM 34.0132 -84.5971 North  Level Estimated
Thu 06:37:00 PM 34.0132 -84.5971 North  Level Estimated
Thu 06:38:00 PM 34.0132 -84.5971 North  Level Estimated
Thu 06:39:00 PM 34.0132 -84.5971 North  Level Estimated
Thu 06:40:00 PM 34.0132 -84.5971 North  Level Estimated

Login

Don't have an account? Register now (free) for customized features, flight alerts, and more!